Time;durP1;ratioP1;P1;durP2;ratioP2;P2;SDS_P1;SDS_P2;PMS_P1;PMS_P2;Temp;Humidity;BMP_temperature;BMP_pressure;BME280_temperature;BME280_humidity;BME280_pressure;Samples;Min_cycle;Max_cycle;Signal;HPM_P1;HPM_P2
2022/03/16 00:01:54;;;;;;;60.50;30.85;;;3.40;99.90;;;;;;5093921;28;20087;-85
2022/03/16 00:04:20;;;;;;;61.83;31.77;;;3.40;99.90;;;;;;5081419;28;20046;-85
2022/03/16 00:06:45;;;;;;;75.55;33.65;;;3.40;99.90;;;;;;5098043;28;20416;-85
2022/03/16 00:09:11;;;;;;;65.30;31.55;;;3.30;99.90;;;;;;5097764;28;20044;-86
2022/03/16 00:11:37;;;;;;;76.93;35.25;;;3.30;99.90;;;;;;5097880;28;20040;-85
2022/03/16 00:14:02;;;;;;;70.28;32.17;;;3.30;99.90;;;;;;5098008;28;20436;-85
2022/03/16 00:16:28;;;;;;;75.55;35.10;;;3.30;99.90;;;;;;5115971;28;20400;-85
2022/03/16 00:18:54;;;;;;;77.28;36.67;;;3.30;99.90;;;;;;5097730;28;20039;-83
2022/03/16 00:21:20;;;;;;;85.88;36.45;;;3.30;99.90;;;;;;5097612;28;20493;-85
2022/03/16 00:23:45;;;;;;;89.15;38.88;;;3.50;99.90;;;;;;5097394;28;20043;-84
2022/03/16 00:26:11;;;;;;;99.57;39.72;;;3.30;99.90;;;;;;5097761;28;20090;-84
2022/03/16 00:28:37;;;;;;;93.40;38.50;;;3.30;99.90;;;;;;5115604;28;20066;-85
2022/03/16 00:31:03;;;;;;;90.10;39.08;;;3.30;99.90;;;;;;5097400;28;20036;-85
2022/03/16 00:33:29;;;;;;;91.15;38.33;;;3.30;99.90;;;;;;5080328;28;20052;-85
2022/03/16 00:35:54;;;;;;;94.60;40.78;;;3.30;99.90;;;;;;5097423;28;20048;-84
2022/03/16 00:38:20;;;;;;;84.35;36.83;;;3.40;99.90;;;;;;5115359;28;20050;-85
2022/03/16 00:40:46;;;;;;;99.13;39.30;;;3.40;99.90;;;;;;5115039;28;20039;-85
2022/03/16 00:43:14;;;;;;;90.35;38.90;;;3.40;99.90;;;;;;5097213;28;20051;-85
2022/03/16 00:45:40;;;;;;;103.03;39.25;;;3.50;99.90;;;;;;5080437;28;20044;-85
2022/03/16 00:48:06;;;;;;;116.22;42.45;;;3.50;99.90;;;;;;5097099;28;20134;-85
2022/03/16 00:50:32;;;;;;;109.00;41.33;;;3.50;99.90;;;;;;5097022;28;20127;-84
2022/03/16 00:52:59;;;;;;;116.88;41.75;;;3.50;99.90;;;;;;5097096;28;20054;-85
2022/03/16 00:55:24;;;;;;;91.32;39.15;;;3.50;99.90;;;;;;5080096;28;20404;-84
2022/03/16 00:57:50;;;;;;;92.35;39.45;;;3.40;99.90;;;;;;5080225;28;20043;-84
2022/03/16 01:00:16;;;;;;;118.00;40.25;;;3.40;99.90;;;;;;5096525;28;20059;-85
2022/03/16 01:02:41;;;;;;;101.35;40.28;;;3.40;99.90;;;;;;5097171;28;20043;-84
2022/03/16 01:05:07;;;;;;;95.55;40.35;;;3.30;99.90;;;;;;5096983;28;20481;-84
2022/03/16 01:07:33;;;;;;;103.72;41.70;;;3.30;99.90;;;;;;5080005;28;20050;-84
2022/03/16 01:09:59;;;;;;;111.57;41.75;;;3.40;99.90;;;;;;5096427;28;20044;-85
2022/03/16 01:12:24;;;;;;;94.50;41.22;;;3.50;99.90;;;;;;5113984;28;20044;-84
2022/03/16 01:14:50;;;;;;;132.48;43.55;;;3.80;99.90;;;;;;5080043;28;20121;-85
2022/03/16 01:17:16;;;;;;;86.20;38.95;;;3.80;99.90;;;;;;5096734;28;20136;-85
2022/03/16 01:19:41;;;;;;;126.40;43.03;;;3.80;99.90;;;;;;5096657;28;20467;-84
2022/03/16 01:22:07;;;;;;;101.35;40.58;;;3.80;99.90;;;;;;5096529;28;20035;-84
2022/03/16 01:24:33;;;;;;;94.80;39.95;;;3.80;99.90;;;;;;5079449;28;20052;-85
2022/03/16 01:26:59;;;;;;;93.75;40.20;;;3.70;99.90;;;;;;5095616;28;20043;-84
2022/03/16 01:29:25;;;;;;;101.65;40.28;;;3.70;99.90;;;;;;5076133;28;20114;-85
2022/03/16 01:31:54;;;;;;;95.03;39.00;;;3.70;99.90;;;;;;5092789;28;20501;-85
2022/03/16 01:34:21;;;;;;;117.90;40.83;;;3.70;99.90;;;;;;5084199;28;20087;-84
2022/03/16 01:36:47;;;;;;;95.18;38.55;;;3.60;99.90;;;;;;5092709;28;20052;-85
2022/03/16 01:39:13;;;;;;;95.07;38.45;;;3.50;99.90;;;;;;5095034;28;20501;-85
2022/03/16 01:41:39;;;;;;;103.63;41.13;;;3.50;99.90;;;;;;5095943;28;20043;-84
2022/03/16 01:44:05;;;;;;;125.35;42.38;;;3.40;99.90;;;;;;5096114;28;20155;-84
2022/03/16 01:46:31;;;;;;;94.57;39.42;;;3.40;99.90;;;;;;5096205;28;20066;-85
2022/03/16 01:49:00;;;;;;;117.28;41.80;;;3.40;99.90;;;;;;5095955;28;20492;-85
2022/03/16 01:51:26;;;;;;;103.15;42.08;;;3.40;99.90;;;;;;5095614;28;20126;-85
2022/03/16 01:53:51;;;;;;;98.03;39.28;;;3.30;99.90;;;;;;5096131;28;20127;-85
2022/03/16 01:56:18;;;;;;;78.93;34.88;;;3.30;99.90;;;;;;5113707;28;20055;-85
2022/03/16 01:58:45;;;;;;;97.85;38.85;;;3.20;99.90;;;;;;5095842;28;20099;-85
2022/03/16 02:01:11;;;;;;;100.70;39.30;;;3.20;99.90;;;;;;5113861;28;20465;-84
2022/03/16 02:03:37;;;;;;;86.65;35.28;;;3.10;99.90;;;;;;5095628;28;20040;-84
2022/03/16 02:06:03;;;;;;;107.40;38.00;;;3.20;99.90;;;;;;5078779;28;20058;-85
2022/03/16 02:08:40;;;;;;;86.72;35.58;;;3.00;99.90;;;;;;5078480;28;20124;-85
2022/03/16 02:11:06;;;;;;;81.82;35.92;;;2.90;99.90;;;;;;5095232;28;20044;-85
2022/03/16 02:13:34;;;;;;;88.88;35.72;;;2.80;99.90;;;;;;5095751;28;20044;-85
2022/03/16 02:16:01;;;;;;;95.65;36.78;;;2.80;99.90;;;;;;5095797;28;20108;-85
2022/03/16 02:18:26;;;;;;;78.88;33.20;;;2.70;99.90;;;;;;5095207;28;20051;-85
2022/03/16 02:20:54;;;;;;;104.22;38.00;;;2.70;99.90;;;;;;5095587;28;20404;-84
2022/03/16 02:23:19;;;;;;;88.10;36.13;;;2.60;99.90;;;;;;5094744;28;20417;-85
2022/03/16 02:25:53;;;;;;;96.25;37.65;;;2.60;99.90;;;;;;5112590;28;20048;-84
2022/03/16 02:28:20;;;;;;;109.68;38.95;;;2.60;99.90;;;;;;5095150;28;20165;-84
2022/03/16 02:30:47;;;;;;;92.40;37.72;;;2.50;99.90;;;;;;5113312;28;20036;-84
2022/03/16 02:33:13;;;;;;;87.57;36.90;;;2.50;99.90;;;;;;5094984;28;20447;-84
2022/03/16 02:35:38;;;;;;;87.68;37.67;;;2.50;99.90;;;;;;5113256;28;20104;-85
2022/03/16 02:38:04;;;;;;;133.63;39.92;;;2.50;99.90;;;;;;5095349;28;20036;-84
2022/03/16 02:40:30;;;;;;;85.38;35.88;;;2.50;99.90;;;;;;5095257;28;20051;-85
2022/03/16 02:42:56;;;;;;;81.97;34.47;;;2.40;99.90;;;;;;5094887;28;20047;-84
2022/03/16 02:45:22;;;;;;;86.28;35.72;;;2.60;99.90;;;;;;5095342;28;20050;-85
2022/03/16 02:47:48;;;;;;;104.78;37.92;;;2.40;99.90;;;;;;5094892;28;20370;-84
2022/03/16 02:50:16;;;;;;;76.82;33.95;;;2.30;99.90;;;;;;5094687;28;20040;-85
2022/03/16 02:52:42;;;;;;;91.88;36.92;;;2.30;99.90;;;;;;5095037;28;20502;-85
2022/03/16 02:55:09;;;;;;;99.03;36.47;;;2.30;99.90;;;;;;5112756;28;20523;-84
2022/03/16 02:57:35;;;;;;;99.90;38.10;;;2.30;99.90;;;;;;5094903;28;20051;-84
2022/03/16 03:00:01;;;;;;;86.40;35.80;;;2.30;99.90;;;;;;5094798;28;20465;-84
2022/03/16 03:02:27;;;;;;;88.72;36.25;;;2.20;99.90;;;;;;5077638;28;20134;-85
2022/03/16 03:04:53;;;;;;;90.38;35.72;;;2.20;99.90;;;;;;5095007;28;20142;-84
2022/03/16 03:07:18;;;;;;;81.03;34.45;;;2.20;99.90;;;;;;5094991;28;20090;-84
2022/03/16 03:09:44;;;;;;;82.50;35.53;;;2.10;99.90;;;;;;5094650;28;20465;-85
2022/03/16 03:12:10;;;;;;;81.07;34.95;;;2.10;99.90;;;;;;5077950;28;20126;-84
2022/03/16 03:14:36;;;;;;;80.15;35.63;;;2.10;99.90;;;;;;5112864;28;20377;-85
2022/03/16 03:17:02;;;;;;;73.97;33.70;;;2.10;99.90;;;;;;5094927;28;20101;-85
2022/03/16 03:19:28;;;;;;;89.50;36.58;;;2.10;99.90;;;;;;5094729;28;20378;-85
2022/03/16 03:21:54;;;;;;;77.47;35.83;;;2.10;99.90;;;;;;5077932;28;20063;-84
2022/03/16 03:24:20;;;;;;;87.63;36.65;;;2.00;99.90;;;;;;5094585;28;20435;-86
2022/03/16 03:26:45;;;;;;;91.10;37.80;;;2.10;99.90;;;;;;5094756;28;20063;-86
2022/03/16 03:29:14;;;;;;;118.43;40.75;;;2.00;99.90;;;;;;5094551;28;20047;-86
2022/03/16 03:31:40;;;;;;;94.68;37.78;;;2.00;99.90;;;;;;5112603;28;20059;-85
2022/03/16 03:34:05;;;;;;;133.95;38.38;;;2.00;99.90;;;;;;5077252;28;20409;-85
2022/03/16 03:36:31;;;;;;;93.97;36.42;;;2.00;99.90;;;;;;5115220;28;20412;-85
2022/03/16 03:38:57;;;;;;;105.03;37.85;;;2.00;99.90;;;;;;5098431;28;20112;-85
2022/03/16 03:41:23;;;;;;;85.35;36.30;;;1.90;99.90;;;;;;5098417;28;20100;-86
2022/03/16 03:43:48;;;;;;;101.93;37.20;;;1.90;99.90;;;;;;5098644;28;20040;-86
2022/03/16 03:46:14;;;;;;;77.15;35.88;;;1.90;99.90;;;;;;5081620;28;20063;-85
2022/03/16 03:48:40;;;;;;;77.80;34.28;;;1.90;99.90;;;;;;5081565;28;20056;-86
2022/03/16 03:51:05;;;;;;;70.07;32.92;;;1.90;99.90;;;;;;5097969;28;20492;-86
2022/03/16 03:53:32;;;;;;;108.43;39.92;;;1.90;99.90;;;;;;5098252;28;20044;-85
2022/03/16 03:55:58;;;;;;;83.57;35.83;;;1.90;99.90;;;;;;5097996;28;20070;-85
2022/03/16 03:58:23;;;;;;;98.57;38.13;;;1.90;99.90;;;;;;5098185;28;20043;-86
2022/03/16 04:00:49;;;;;;;85.68;36.42;;;2.00;99.90;;;;;;5098039;28;20043;-85
2022/03/16 04:03:16;;;;;;;93.45;38.70;;;2.00;99.90;;;;;;5098267;28;20172;-85
2022/03/16 04:05:41;;;;;;;101.05;38.55;;;2.00;99.90;;;;;;5097875;28;20047;-86
2022/03/16 04:08:07;;;;;;;105.20;38.42;;;2.00;99.90;;;;;;5097806;28;20512;-85
2022/03/16 04:10:36;;;;;;;82.35;36.08;;;2.00;99.90;;;;;;5097786;28;20055;-85
2022/03/16 04:13:02;;;;;;;81.75;36.05;;;2.10;99.90;;;;;;5097824;28;20047;-86
2022/03/16 04:15:28;;;;;;;78.47;35.15;;;2.00;99.90;;;;;;5098000;28;20177;-86
2022/03/16 04:17:54;;;;;;;101.20;37.30;;;2.00;99.90;;;;;;5097805;28;20142;-87
2022/03/16 04:20:19;;;;;;;76.20;33.95;;;2.00;99.90;;;;;;5097519;28;20050;-85
2022/03/16 04:22:45;;;;;;;76.40;35.25;;;2.00;99.90;;;;;;5080460;28;20055;-85
2022/03/16 04:25:11;;;;;;;78.40;34.95;;;2.00;99.90;;;;;;5097518;28;20046;-85
2022/03/16 04:27:37;;;;;;;85.20;34.13;;;2.20;99.90;;;;;;5079816;28;20403;-86
2022/03/16 04:30:03;;;;;;;69.68;32.78;;;1.90;99.90;;;;;;5097880;28;20489;-86
2022/03/16 04:32:29;;;;;;;68.32;32.72;;;1.90;99.90;;;;;;5097236;28;20127;-86
2022/03/16 04:34:55;;;;;;;81.97;34.67;;;1.90;99.90;;;;;;5097053;28;20138;-86
2022/03/16 04:37:21;;;;;;;78.82;34.42;;;1.90;99.90;;;;;;5085751;28;20052;-85
2022/03/16 04:39:46;;;;;;;82.50;35.30;;;1.90;99.90;;;;;;5093992;28;20051;-85
2022/03/16 04:42:12;;;;;;;71.50;31.83;;;1.90;99.90;;;;;;5078925;28;20465;-85
2022/03/16 04:44:37;;;;;;;77.13;33.15;;;1.90;99.90;;;;;;5097450;28;20039;-85
2022/03/16 04:47:03;;;;;;;102.95;37.00;;;1.90;99.90;;;;;;5079370;28;20094;-85
2022/03/16 04:49:29;;;;;;;62.63;31.58;;;1.80;99.90;;;;;;5097031;28;20043;-85
2022/03/16 04:51:54;;;;;;;68.72;31.50;;;1.80;99.90;;;;;;5080171;28;20036;-86
2022/03/16 04:54:20;;;;;;;74.47;32.22;;;1.70;99.90;;;;;;5079884;28;20142;-85
2022/03/16 04:56:46;;;;;;;79.05;33.45;;;1.70;99.90;;;;;;5096925;28;20047;-86
2022/03/16 04:59:12;;;;;;;83.30;33.13;;;1.70;99.90;;;;;;5096936;28;20058;-86
2022/03/16 05:01:38;;;;;;;71.03;31.75;;;1.60;99.90;;;;;;5097021;28;20043;-86
2022/03/16 05:04:03;;;;;;;77.45;31.75;;;1.60;99.90;;;;;;5114940;28;20051;-86
2022/03/16 05:06:29;;;;;;;81.20;33.60;;;1.60;99.90;;;;;;5114867;28;20043;-86
2022/03/16 05:08:55;;;;;;;68.90;32.22;;;1.60;99.90;;;;;;5080049;28;20047;-85
2022/03/16 05:11:22;;;;;;;73.90;33.85;;;1.60;99.90;;;;;;5096335;28;20043;-86
2022/03/16 05:13:49;;;;;;;87.72;33.42;;;1.60;99.90;;;;;;5096622;28;20047;-86
2022/03/16 05:16:15;;;;;;;72.93;32.92;;;1.50;99.90;;;;;;5079961;28;20055;-86
2022/03/16 05:18:43;;;;;;;85.07;33.38;;;1.50;99.90;;;;;;5079673;28;20485;-85
2022/03/16 05:21:09;;;;;;;83.78;36.15;;;1.50;99.90;;;;;;5096754;28;20405;-86
2022/03/16 05:23:35;;;;;;;74.43;32.72;;;1.50;99.90;;;;;;5078686;28;20523;-86
2022/03/16 05:26:01;;;;;;;81.72;34.55;;;1.50;99.90;;;;;;5096162;28;20524;-86
2022/03/16 05:28:27;;;;;;;120.72;36.83;;;1.50;99.90;;;;;;5096359;28;20083;-87
2022/03/16 05:30:52;;;;;;;75.72;32.63;;;1.50;99.90;;;;;;5093817;28;20039;-86
2022/03/16 05:33:18;;;;;;;69.63;31.17;;;1.50;99.90;;;;;;5075472;28;20047;-85
2022/03/16 05:35:44;;;;;;;78.28;33.85;;;1.50;99.90;;;;;;5093311;28;20137;-86
2022/03/16 05:38:12;;;;;;;72.18;33.45;;;1.50;99.90;;;;;;5058761;28;20043;-86
2022/03/16 05:40:39;;;;;;;77.03;34.55;;;1.50;99.90;;;;;;5089111;28;20047;-86
2022/03/16 05:43:05;;;;;;;83.90;35.10;;;1.50;99.90;;;;;;5095984;28;20082;-86
2022/03/16 05:45:31;;;;;;;82.18;35.92;;;1.50;99.90;;;;;;5096302;28;20511;-86
2022/03/16 05:47:57;;;;;;;96.90;40.83;;;1.50;99.90;;;;;;5096114;28;20127;-86
2022/03/16 05:50:28;;;;;;;141.27;43.80;;;1.50;99.90;;;;;;5095812;28;20071;-86
2022/03/16 05:53:00;;;;;;;81.00;36.20;;;1.60;99.90;;;;;;5096165;28;20047;-86
2022/03/16 05:55:26;;;;;;;77.28;36.17;;;1.70;99.90;;;;;;5095837;28;20047;-86
2022/03/16 05:57:52;;;;;;;101.00;41.25;;;1.80;99.90;;;;;;5095564;28;20423;-86
2022/03/16 06:00:22;;;;;;;79.50;38.97;;;1.80;99.90;;;;;;5095885;28;20055;-86
2022/03/16 06:02:49;;;;;;;74.80;36.15;;;1.80;99.90;;;;;;5095931;28;20439;-86
2022/03/16 06:05:16;;;;;;;88.70;37.83;;;1.80;99.90;;;;;;5095803;28;20047;-86
2022/03/16 06:07:43;;;;;;;103.00;39.80;;;1.90;99.90;;;;;;5095847;28;20126;-86
2022/03/16 06:10:12;;;;;;;104.03;42.50;;;1.90;99.90;;;;;;5095648;28;20084;-86
2022/03/16 06:12:57;;;;;;;92.05;39.05;;;2.00;99.90;;;;;;5078262;28;20132;-86
2022/03/16 06:15:24;;;;;;;97.93;40.38;;;2.10;99.90;;;;;;5113897;28;20047;-86
2022/03/16 06:17:55;;;;;;;66.07;32.38;;;2.20;99.90;;;;;;5113549;28;20090;-86
2022/03/16 06:20:21;;;;;;;56.83;32.45;;;2.20;99.90;;;;;;5095262;28;20048;-87
2022/03/16 06:22:47;;;;;;;78.75;37.13;;;2.20;99.90;;;;;;5095439;28;20531;-86
2022/03/16 06:25:13;;;;;;;81.10;38.28;;;2.30;99.90;;;;;;5095241;28;20070;-87
2022/03/16 06:27:38;;;;;;;89.85;39.83;;;2.70;99.90;;;;;;5095210;28;20039;-87
2022/03/16 06:30:05;;;;;;;64.65;35.15;;;2.50;99.90;;;;;;5095508;28;20051;-87
2022/03/16 06:32:30;;;;;;;83.35;38.30;;;2.60;99.90;;;;;;5094982;28;20481;-87
2022/03/16 06:34:56;;;;;;;92.90;39.55;;;2.80;99.90;;;;;;5109242;28;20059;-87
2022/03/16 06:37:22;;;;;;;71.43;36.65;;;2.90;99.90;;;;;;5115695;27;20392;-87
2022/03/16 06:39:48;;;;;;;75.05;38.50;;;3.00;99.90;;;;;;5115413;27;20057;-87
2022/03/16 06:42:13;;;;;;;75.40;37.13;;;3.20;99.90;;;;;;5098495;27;20488;-86
2022/03/16 06:44:39;;;;;;;81.88;40.47;;;3.30;99.90;;;;;;5115652;28;20043;-87
2022/03/16 06:47:05;;;;;;;81.78;39.60;;;3.50;99.90;;;;;;5098026;28;20062;-87
2022/03/16 06:49:30;;;;;;;70.88;35.35;;;3.50;99.90;;;;;;5098755;27;20484;-87
2022/03/16 06:51:56;;;;;;;81.28;40.03;;;3.60;99.90;;;;;;5097869;28;20047;-87
2022/03/16 06:54:22;;;;;;;68.13;37.70;;;3.70;99.90;;;;;;5114848;27;20062;-87
2022/03/16 06:56:47;;;;;;;67.50;37.83;;;3.80;99.90;;;;;;5098505;28;20516;-87
2022/03/16 06:59:13;;;;;;;70.05;39.05;;;3.80;99.90;;;;;;5115194;28;20107;-87
2022/03/16 07:01:39;;;;;;;66.70;36.70;;;3.90;99.90;;;;;;5115418;28;20485;-87
2022/03/16 07:04:05;;;;;;;71.57;38.35;;;4.00;99.90;;;;;;5098485;28;20047;-87
2022/03/16 07:06:31;;;;;;;69.75;36.90;;;4.20;99.90;;;;;;5114590;28;20515;-87
2022/03/16 07:08:57;;;;;;;66.57;37.22;;;4.20;99.90;;;;;;5115338;28;20047;-87
2022/03/16 07:11:22;;;;;;;57.47;34.08;;;4.40;99.90;;;;;;5099806;27;20055;-87
2022/03/16 07:14:30;;;;;;;62.88;36.10;;;4.60;99.90;;;;;;5119757;27;20043;-87
2022/03/16 07:16:43;;;;;;;66.70;37.05;;;4.70;99.90;;;;;;5119232;27;20054;-87
2022/03/16 07:19:08;;;;;;;61.67;37.45;;;4.90;99.90;;;;;;5137467;27;20043;-87
2022/03/16 07:21:34;;;;;;;61.40;35.92;;;5.00;99.90;;;;;;5119104;27;20080;-87
2022/03/16 07:24:00;;;;;;;61.08;36.42;;;5.20;99.90;;;;;;5119060;27;20039;-88
2022/03/16 07:26:27;;;;;;;56.67;36.88;;;5.30;99.90;;;;;;5102111;27;20107;-88
2022/03/16 07:28:53;;;;;;;50.10;32.33;;;5.50;99.90;;;;;;5102028;27;20142;-88
2022/03/16 07:31:19;;;;;;;49.25;33.00;;;5.60;99.90;;;;;;5119121;27;20403;-87
2022/03/16 07:33:45;;;;;;;49.70;31.52;;;5.80;99.90;;;;;;5118883;27;20043;-87
2022/03/16 07:36:11;;;;;;;46.50;31.10;;;5.90;99.90;;;;;;5119051;27;20080;-87
2022/03/16 07:38:37;;;;;;;45.90;30.45;;;6.00;99.90;;;;;;5118820;27;20043;-88
2022/03/16 07:41:02;;;;;;;39.22;26.63;;;6.10;99.90;;;;;;5119088;27;20506;-87
2022/03/16 07:43:30;;;;;;;42.72;29.02;;;6.30;99.90;;;;;;5118990;27;20395;-87
2022/03/16 07:46:16;;;;;;;39.08;27.20;;;6.10;99.90;;;;;;5102062;27;20104;-87
2022/03/16 07:48:43;;;;;;;43.22;27.55;;;6.30;99.90;;;;;;5104403;27;20412;-87
2022/03/16 07:51:09;;;;;;;46.65;30.20;;;6.40;99.90;;;;;;5118365;27;20090;-88
2022/03/16 07:53:35;;;;;;;45.20;29.20;;;6.50;99.90;;;;;;5118422;27;20082;-87
2022/03/16 07:56:01;;;;;;;41.70;28.20;;;6.60;99.90;;;;;;5101660;27;20142;-87
2022/03/16 07:58:27;;;;;;;43.38;29.08;;;6.70;99.90;;;;;;5118686;27;20044;-87
2022/03/16 08:00:53;;;;;;;40.97;27.50;;;6.80;99.90;;;;;;5118717;27;20047;-87
2022/03/16 08:03:18;;;;;;;40.72;26.95;;;7.20;99.90;;;;;;5101292;27;20051;-87
2022/03/16 08:05:46;;;;;;;41.78;27.73;;;7.00;99.90;;;;;;5101453;27;20104;-88
2022/03/16 08:08:12;;;;;;;40.45;27.77;;;7.10;99.90;;;;;;5136713;27;20059;-88
2022/03/16 08:10:37;;;;;;;35.95;25.15;;;7.30;99.90;;;;;;5118563;27;20051;-87
2022/03/16 08:13:03;;;;;;;38.28;26.95;;;7.50;99.90;;;;;;5100866;27;20104;-87
2022/03/16 08:15:28;;;;;;;36.35;25.35;;;7.50;99.90;;;;;;5101047;27;20515;-87
2022/03/16 08:17:54;;;;;;;37.85;25.65;;;7.70;99.90;;;;;;5101161;27;20059;-87
2022/03/16 08:20:20;;;;;;;35.60;25.23;;;7.80;99.90;;;;;;5118328;27;20043;-87
2022/03/16 08:22:45;;;;;;;36.42;24.23;;;7.90;99.90;;;;;;5117910;27;20050;-87
2022/03/16 08:25:12;;;;;;;35.40;24.20;;;8.10;99.90;;;;;;5101281;27;20054;-87
2022/03/16 08:27:39;;;;;;;34.67;24.10;;;8.30;99.90;;;;;;5118006;27;20468;-87
2022/03/16 08:30:08;;;;;;;36.58;24.05;;;8.60;99.90;;;;;;5118171;27;20043;-87
2022/03/16 08:32:34;;;;;;;34.42;23.02;;;8.50;99.90;;;;;;5117664;27;20078;-87
2022/03/16 08:34:59;;;;;;;32.03;22.70;;;8.60;99.90;;;;;;5117726;27;20111;-87
2022/03/16 08:37:25;;;;;;;28.75;21.85;;;8.70;99.90;;;;;;5099844;27;20051;-87
2022/03/16 08:39:51;;;;;;;31.95;22.70;;;8.80;99.90;;;;;;5118265;27;20099;-88
2022/03/16 08:42:17;;;;;;;35.45;22.85;;;8.90;99.90;;;;;;5117974;27;20051;-87
2022/03/16 08:44:45;;;;;;;35.15;23.73;;;8.90;99.90;;;;;;5117269;27;20051;-87
2022/03/16 08:47:11;;;;;;;34.28;22.05;;;9.00;99.90;;;;;;5100235;27;20063;-87
2022/03/16 08:49:37;;;;;;;33.13;21.92;;;9.10;99.90;;;;;;5135791;27;20504;-87
2022/03/16 08:52:05;;;;;;;30.08;20.58;;;9.20;99.90;;;;;;5100073;27;20047;-86
2022/03/16 08:54:30;;;;;;;33.63;20.58;;;9.30;99.90;;;;;;5118025;27;20047;-87
2022/03/16 08:56:56;;;;;;;30.80;20.92;;;9.40;99.90;;;;;;5135362;27;20100;-87
2022/03/16 08:59:23;;;;;;;30.10;20.90;;;9.50;99.90;;;;;;5127512;27;20047;-86
2022/03/16 09:01:50;;;;;;;33.63;21.70;;;9.70;99.90;;;;;;5117404;27;20055;-87
2022/03/16 09:04:16;;;;;;;36.58;21.10;;;9.80;99.90;;;;;;5100249;27;20051;-87
2022/03/16 09:06:42;;;;;;;32.03;20.35;;;9.90;99.90;;;;;;5100122;27;20046;-87
2022/03/16 09:09:08;;;;;;;27.13;18.67;;;10.20;99.90;;;;;;5100530;27;20066;-88
2022/03/16 09:11:36;;;;;;;26.05;17.83;;;10.80;99.90;;;;;;5117241;27;20476;-87
2022/03/16 09:14:05;;;;;;;28.75;18.45;;;11.90;99.90;;;;;;5099991;27;20123;-87
2022/03/16 09:16:31;;;;;;;26.08;16.40;;;13.30;99.90;;;;;;5099957;27;20059;-87
2022/03/16 09:18:56;;;;;;;23.23;16.30;;;14.50;99.90;;;;;;5116972;27;20043;-88
2022/03/16 09:21:25;;;;;;;23.05;16.55;;;15.40;99.90;;;;;;5116894;27;20058;-88
2022/03/16 09:23:54;;;;;;;19.33;14.07;;;16.10;99.90;;;;;;5117290;27;20082;-87
2022/03/16 09:26:22;;;;;;;19.38;15.02;;;16.50;99.90;;;;;;5117216;27;20043;-87
2022/03/16 09:28:49;;;;;;;21.65;14.52;;;16.40;99.90;;;;;;5116688;27;20046;-87
2022/03/16 09:31:15;;;;;;;19.63;14.63;;;16.50;99.90;;;;;;5116736;27;20127;-87
2022/03/16 09:33:41;;;;;;;21.85;14.20;;;16.80;99.90;;;;;;5098487;27;20055;-88
2022/03/16 09:36:08;;;;;;;18.77;13.70;;;17.10;99.90;;;;;;5116597;27;20104;-88
2022/03/16 09:38:35;;;;;;;23.40;14.48;;;17.30;99.90;;;;;;5135306;27;20047;-87
2022/03/16 09:41:02;;;;;;;18.70;13.95;;;17.60;97.90;;;;;;5116715;27;20038;-88
2022/03/16 09:43:32;;;;;;;19.70;14.38;;;17.60;96.60;;;;;;5116662;27;20051;-89
2022/03/16 09:46:21;;;;;;;17.65;13.40;;;17.90;94.30;;;;;;5099634;27;20042;-87
2022/03/16 09:48:46;;;;;;;17.50;13.07;;;18.70;88.40;;;;;;5098899;27;20492;-89
2022/03/16 09:51:16;;;;;;;18.55;13.30;;;19.40;88.40;;;;;;5099231;27;20039;-88
2022/03/16 09:53:42;;;;;;;18.30;12.85;;;19.40;80.40;;;;;;5116578;27;20039;-88
2022/03/16 09:56:09;;;;;;;17.88;13.20;;;19.10;78.90;;;;;;5116417;27;20443;-88
2022/03/16 09:58:35;;;;;;;18.17;13.40;;;19.20;78.30;;;;;;5098719;27;20058;-88
2022/03/16 10:01:05;;;;;;;16.60;12.73;;;19.10;75.80;;;;;;5098959;27;20043;-87
2022/03/16 10:03:31;;;;;;;16.05;13.23;;;19.20;75.80;;;;;;5116128;27;20059;-88
2022/03/16 10:05:58;;;;;;;20.27;13.18;;;19.10;75.60;;;;;;5116248;27;20393;-88
2022/03/16 10:08:35;;;;;;;17.55;12.57;;;18.80;73.20;;;;;;5116339;27;20054;-89
2022/03/16 10:14:17;;;;;;;17.02;11.90;;;18.30;67.30;;;;;;5034586;28;20147;-89
2022/03/16 10:19:49;;;;;;;16.65;11.45;;;17.40;73.50;;;;;;5034363;28;20044;-88
2022/03/16 10:22:41;;;;;;;19.00;12.07;;;17.00;79.60;;;;;;5034216;28;20055;-87
2022/03/16 10:25:08;;;;;;;17.38;11.93;;;16.90;75.20;;;;;;5029064;28;20062;-88
2022/03/16 10:27:37;;;;;;;19.70;12.27;;;17.00;79.50;;;;;;5014219;28;20411;-87
2022/03/16 10:30:06;;;;;;;17.63;12.13;;;17.40;76.10;;;;;;5012016;28;20439;-88
2022/03/16 10:32:32;;;;;;;15.48;11.65;;;17.70;74.10;;;;;;5010903;28;20468;-88
2022/03/16 10:35:05;;;;;;;15.57;10.80;;;18.20;70.40;;;;;;5023914;28;20045;-88
2022/03/16 10:37:33;;;;;;;17.77;11.43;;;18.50;68.90;;;;;;5050312;28;20059;-89
2022/03/16 10:39:58;;;;;;;16.10;11.10;;;18.70;65.60;;;;;;5050896;28;20044;-90
2022/03/16 10:48:21;;;;;;;16.80;11.73;;;19.20;61.70;;;;;;5033677;28;20049;-89
2022/03/16 10:50:48;;;;;;;15.18;10.93;;;19.20;60.00;;;;;;5050460;28;20049;-88
2022/03/16 10:53:16;;;;;;;17.92;11.15;;;19.40;62.10;;;;;;5033656;28;20187;-88
2022/03/16 10:55:43;;;;;;;19.77;11.13;;;19.60;60.20;;;;;;5033798;28;20056;-89
2022/03/16 10:58:11;;;;;;;16.02;11.10;;;20.00;60.00;;;;;;5033488;28;20056;-89
2022/03/16 11:00:39;;;;;;;15.95;11.32;;;20.30;57.20;;;;;;5030569;28;20514;-88
2022/03/16 11:03:07;;;;;;;15.30;10.25;;;20.30;57.10;;;;;;5091960;28;20435;-89
2022/03/16 11:05:36;;;;;;;13.60;10.43;;;20.10;57.10;;;;;;5095145;28;20483;-89
2022/03/16 11:08:09;;;;;;;15.30;10.52;;;20.10;56.40;;;;;;5094639;28;20040;-89
2022/03/16 11:10:40;;;;;;;14.90;10.23;;;20.50;55.80;;;;;;5077828;28;20046;-90
2022/03/16 11:15:52;;;;;;;17.10;10.82;;;21.20;54.50;;;;;;5095023;28;19975;-88
2022/03/16 11:18:19;;;;;;;15.25;10.90;;;21.70;53.80;;;;;;5094738;28;20047;-88
2022/03/16 11:20:52;;;;;;;15.48;11.10;;;21.90;52.40;;;;;;5077611;28;20052;-88
2022/03/16 11:26:24;;;;;;;14.15;10.45;;;22.30;51.00;;;;;;5094863;28;20043;-89
2022/03/16 11:29:23;;;;;;;16.65;11.80;;;22.70;50.20;;;;;;5094668;28;20066;-88
2022/03/16 11:31:48;;;;;;;15.63;11.52;;;22.70;48.80;;;;;;5077387;28;20450;-88
2022/03/16 11:34:23;;;;;;;15.77;11.77;;;22.80;50.10;;;;;;5118307;27;20095;-90
2022/03/16 11:37:04;;;;;;;15.75;11.45;;;23.00;49.10;;;;;;5115012;28;20054;-90
2022/03/16 11:39:42;;;;;;;14.85;11.63;;;23.10;47.60;;;;;;5115078;28;20396;-90
2022/03/16 11:42:08;;;;;;;15.43;11.25;;;23.20;47.40;;;;;;5114820;28;20053;-89
2022/03/16 11:44:34;;;;;;;15.57;11.32;;;23.40;47.90;;;;;;5097968;28;20047;-88
2022/03/16 11:47:09;;;;;;;15.75;10.70;;;23.60;47.70;;;;;;5115146;28;20047;-88
2022/03/16 11:49:41;;;;;;;15.68;11.00;;;24.20;46.20;;;;;;5114973;28;20404;-90
2022/03/16 11:52:10;;;;;;;14.98;10.98;;;24.10;45.80;;;;;;5114461;28;20105;-89
2022/03/16 11:54:46;;;;;;;15.85;10.77;;;24.00;45.90;;;;;;5114833;28;20089;-90
2022/03/16 11:57:15;;;;;;;16.50;10.45;;;23.90;44.90;;;;;;5116866;27;20138;-88
2022/03/16 11:59:44;;;;;;;13.73;10.60;;;24.00;45.90;;;;;;5118571;27;20046;-89
2022/03/16 12:02:31;;;;;;;13.63;10.13;;;24.30;44.90;;;;;;5118409;27;20043;-88
2022/03/16 12:05:02;;;;;;;17.15;10.15;;;24.30;45.00;;;;;;5117456;27;20047;-88
2022/03/16 12:07:35;;;;;;;12.70;10.68;;;23.90;44.50;;;;;;5118187;27;20043;-88
2022/03/16 12:10:15;;;;;;;15.07;10.52;;;23.70;44.60;;;;;;5118320;27;20051;-90
2022/03/16 12:12:58;;;;;;;12.07;10.50;;;23.80;43.80;;;;;;5101097;27;20039;-89
2022/03/16 12:15:39;;;;;;;14.52;10.90;;;23.70;44.50;;;;;;5101410;27;20405;-89
2022/03/16 12:18:07;;;;;;;13.68;10.73;;;23.70;44.10;;;;;;5118364;27;20491;-90
2022/03/16 12:20:49;;;;;;;14.73;10.75;;;23.50;44.60;;;;;;5101389;27;20091;-89
2022/03/16 12:23:38;;;;;;;16.80;11.07;;;23.40;45.00;;;;;;5100922;27;20051;-92
2022/03/16 12:26:07;;;;;;;14.60;11.10;;;23.80;44.70;;;;;;5100756;27;20112;-88
2022/03/16 12:31:19;;;;;;;17.33;11.23;;;23.80;44.60;;;;;;5117874;27;20050;-90
2022/03/16 12:33:52;;;;;;;13.98;10.93;;;24.00;43.50;;;;;;5117245;27;20476;-89
2022/03/16 12:36:32;;;;;;;15.60;10.50;;;24.10;43.40;;;;;;5100918;27;20086;-88
2022/03/16 12:39:02;;;;;;;14.20;10.65;;;24.30;43.20;;;;;;5117769;27;20054;-90
2022/03/16 12:44:16;;;;;;;14.65;10.85;;;24.60;42.90;;;;;;5117602;27;20058;-89
2022/03/16 12:47:00;;;;;;;14.85;11.07;;;24.40;43.40;;;;;;5117469;27;20443;-88
2022/03/16 12:49:30;;;;;;;15.73;10.93;;;24.60;42.60;;;;;;5117424;27;20055;-89
2022/03/16 12:52:00;;;;;;;13.63;11.65;;;24.60;42.90;;;;;;5117361;27;20047;-90
2022/03/16 12:54:30;;;;;;;13.45;11.10;;;24.70;42.50;;;;;;5117768;27;20089;-89
2022/03/16 12:57:06;;;;;;;15.60;11.48;;;24.40;42.90;;;;;;5100013;27;20496;-89
2022/03/16 12:59:38;;;;;;;13.95;11.18;;;24.00;43.10;;;;;;5100757;27;20070;-89